Time;durP1;ratioP1;P1;durP2;ratioP2;P2;SDS_P1;SDS_P2;PMS_P1;PMS_P2;Temp;Humidity;BMP_temperature;BMP_pressure;BME280_temperature;BME280_humidity;BME280_pressure;Samples;Min_cycle;Max_cycle;Signal;HPM_P1;HPM_P2
2021/11/24 00:01:38;;;;;;;18.98;14.10;;;10.90;99.90;;;;;;5075305;28;20270;-63
2021/11/24 00:04:05;;;;;;;18.33;13.73;;;10.90;99.90;;;;;;5074869;28;20219;-63
2021/11/24 00:06:32;;;;;;;16.33;12.57;;;10.90;99.90;;;;;;5075055;28;20262;-63
2021/11/24 00:09:00;;;;;;;26.23;18.90;;;10.90;99.90;;;;;;5074660;28;20706;-63
2021/11/24 00:11:28;;;;;;;44.80;29.08;;;10.90;99.90;;;;;;5075107;28;20564;-63
2021/11/24 00:13:56;;;;;;;33.72;23.40;;;10.90;99.90;;;;;;5074657;28;20281;-63
2021/11/24 00:16:23;;;;;;;34.38;25.08;;;10.90;99.90;;;;;;5074864;28;20243;-64
2021/11/24 00:18:50;;;;;;;22.20;17.60;;;10.90;99.90;;;;;;5074283;28;20311;-63
2021/11/24 00:21:18;;;;;;;23.55;15.98;;;10.90;99.90;;;;;;5074675;28;20353;-63
2021/11/24 00:23:45;;;;;;;29.35;20.65;;;10.80;99.90;;;;;;5074553;28;20235;-63
2021/11/24 00:26:14;;;;;;;22.23;16.67;;;10.90;99.90;;;;;;5074597;28;20266;-63
2021/11/24 00:28:40;;;;;;;17.80;14.43;;;10.90;99.90;;;;;;5074799;28;20223;-63
2021/11/24 00:31:07;;;;;;;18.88;14.32;;;10.90;99.90;;;;;;5074115;28;20216;-63
2021/11/24 00:33:34;;;;;;;16.73;13.18;;;10.80;99.90;;;;;;5074645;28;20236;-63
2021/11/24 00:36:02;;;;;;;16.80;12.70;;;10.90;99.90;;;;;;5073829;28;20212;-63
2021/11/24 00:38:29;;;;;;;20.42;13.20;;;10.80;99.90;;;;;;5074733;28;20239;-63
2021/11/24 00:40:56;;;;;;;25.20;18.85;;;10.80;99.90;;;;;;5073890;28;20235;-63
2021/11/24 00:43:26;;;;;;;20.50;14.45;;;10.90;99.90;;;;;;5074449;28;20307;-63
2021/11/24 00:45:54;;;;;;;18.65;13.05;;;10.80;99.90;;;;;;5073998;28;20216;-63
2021/11/24 00:48:21;;;;;;;29.02;17.33;;;10.80;99.90;;;;;;5074676;28;20607;-63
2021/11/24 00:50:48;;;;;;;23.10;16.98;;;10.80;99.90;;;;;;5073738;28;20232;-63
2021/11/24 00:53:15;;;;;;;25.50;19.00;;;10.80;99.90;;;;;;5074335;28;20224;-64
2021/11/24 00:55:42;;;;;;;28.15;18.58;;;10.80;99.90;;;;;;5074066;28;20239;-63
2021/11/24 00:58:09;;;;;;;24.38;18.05;;;10.80;99.90;;;;;;5073706;28;20235;-63
2021/11/24 01:00:37;;;;;;;18.10;13.25;;;10.80;99.90;;;;;;5074077;28;20232;-63
2021/11/24 01:03:04;;;;;;;28.33;20.08;;;10.80;99.90;;;;;;5073311;28;20282;-63
2021/11/24 01:05:31;;;;;;;22.77;14.85;;;10.80;99.90;;;;;;5065575;28;20231;-63
2021/11/24 01:07:58;;;;;;;21.35;15.80;;;10.80;99.90;;;;;;5073324;28;20224;-63
2021/11/24 01:10:25;;;;;;;31.95;20.45;;;10.80;99.90;;;;;;5073837;28;20239;-63
2021/11/24 01:12:52;;;;;;;18.92;13.65;;;10.80;99.90;;;;;;5072854;28;20224;-63
2021/11/24 01:15:20;;;;;;;27.10;20.58;;;10.80;99.90;;;;;;5073474;28;20242;-63
2021/11/24 01:17:48;;;;;;;24.27;19.02;;;10.80;99.90;;;;;;5073212;28;20224;-64
2021/11/24 01:20:16;;;;;;;20.83;15.70;;;10.80;99.90;;;;;;5073464;28;20224;-63
2021/11/24 01:22:44;;;;;;;23.13;16.55;;;10.80;99.90;;;;;;5073530;28;20685;-63
2021/11/24 01:25:11;;;;;;;21.23;14.65;;;10.80;99.90;;;;;;5073117;28;20293;-63
2021/11/24 01:27:40;;;;;;;17.38;13.20;;;10.70;99.90;;;;;;5073526;28;20224;-64
2021/11/24 01:30:10;;;;;;;19.73;12.65;;;10.70;99.90;;;;;;5072966;28;20231;-63
2021/11/24 01:32:36;;;;;;;17.35;12.35;;;10.70;99.90;;;;;;5070528;28;20310;-63
2021/11/24 01:35:06;;;;;;;15.77;11.70;;;10.70;99.90;;;;;;5072842;28;20237;-63
2021/11/24 01:37:34;;;;;;;20.48;13.48;;;10.70;99.90;;;;;;5073500;28;20585;-63
2021/11/24 01:40:01;;;;;;;17.75;13.65;;;10.70;99.90;;;;;;5072327;28;20311;-63
2021/11/24 01:42:28;;;;;;;19.83;15.13;;;10.70;99.90;;;;;;5073498;28;20235;-63
2021/11/24 01:44:55;;;;;;;17.65;14.20;;;10.70;99.90;;;;;;5072504;28;20697;-63
2021/11/24 01:47:22;;;;;;;18.50;13.68;;;10.70;99.90;;;;;;5073174;28;20235;-64
2021/11/24 01:49:49;;;;;;;17.15;13.23;;;10.80;99.90;;;;;;5072758;28;20301;-63
2021/11/24 01:52:18;;;;;;;15.27;11.95;;;10.80;99.90;;;;;;5072889;28;20231;-64
2021/11/24 01:54:45;;;;;;;15.10;12.63;;;10.80;99.90;;;;;;5063475;28;20690;-63
2021/11/24 01:57:18;;;;;;;19.88;15.65;;;10.80;99.90;;;;;;5072572;28;20347;-64
2021/11/24 01:59:46;;;;;;;18.73;11.85;;;10.80;99.90;;;;;;5072790;28;20665;-63
2021/11/24 02:02:13;;;;;;;16.23;13.50;;;10.80;99.90;;;;;;5072554;28;20227;-63
2021/11/24 02:04:40;;;;;;;13.80;11.23;;;10.80;99.90;;;;;;5063926;28;20234;-63
2021/11/24 02:07:07;;;;;;;16.98;11.82;;;10.80;99.90;;;;;;5072445;28;20228;-64
2021/11/24 02:09:35;;;;;;;15.63;11.70;;;10.80;99.90;;;;;;5072630;28;20242;-63
2021/11/24 02:12:03;;;;;;;21.10;16.55;;;10.80;99.90;;;;;;5072178;28;20235;-63
2021/11/24 02:14:30;;;;;;;19.85;15.15;;;10.80;99.90;;;;;;5072126;28;20228;-64
2021/11/24 02:16:59;;;;;;;22.13;16.83;;;10.80;99.90;;;;;;5072350;28;20541;-63
2021/11/24 02:19:31;;;;;;;23.05;17.50;;;10.80;99.90;;;;;;5072500;28;20223;-63
2021/11/24 02:22:00;;;;;;;15.70;10.77;;;10.80;99.90;;;;;;5071466;28;20661;-63
2021/11/24 02:24:30;;;;;;;23.63;17.02;;;10.80;99.90;;;;;;5072829;28;20240;-63
2021/11/24 02:26:58;;;;;;;14.15;11.50;;;10.80;99.90;;;;;;5072271;28;20262;-63
2021/11/24 02:29:25;;;;;;;24.90;18.60;;;10.80;99.90;;;;;;5072566;28;20739;-64
2021/11/24 02:31:54;;;;;;;24.23;15.80;;;10.70;99.90;;;;;;5072161;28;20220;-63
2021/11/24 02:34:21;;;;;;;10.90;9.23;;;10.80;99.90;;;;;;5072371;28;20714;-63
2021/11/24 02:36:48;;;;;;;31.77;21.70;;;10.70;99.90;;;;;;5072390;28;20227;-63
2021/11/24 02:39:17;;;;;;;15.45;12.30;;;10.80;99.90;;;;;;5071880;28;20228;-64
2021/11/24 02:41:44;;;;;;;12.48;9.07;;;10.80;99.90;;;;;;5072399;28;20318;-63
2021/11/24 02:44:19;;;;;;;13.45;9.48;;;10.80;99.90;;;;;;5071930;28;20220;-63
2021/11/24 02:46:47;;;;;;;18.70;13.60;;;10.80;99.90;;;;;;5072324;28;20277;-64
2021/11/24 02:49:15;;;;;;;17.33;12.80;;;10.80;99.90;;;;;;5071967;28;20247;-64
2021/11/24 02:51:42;;;;;;;16.67;11.32;;;10.80;99.90;;;;;;5072233;28;20220;-64
2021/11/24 02:54:10;;;;;;;17.88;14.68;;;10.80;99.90;;;;;;5065861;28;20216;-64
2021/11/24 02:56:40;;;;;;;12.77;9.25;;;10.70;99.90;;;;;;5070803;28;20689;-64
2021/11/24 02:59:08;;;;;;;10.68;7.95;;;10.80;99.90;;;;;;5071897;28;20223;-63
2021/11/24 03:01:37;;;;;;;9.05;8.15;;;10.70;99.90;;;;;;5071906;28;20228;-63
2021/11/24 03:04:05;;;;;;;11.13;9.45;;;10.70;99.90;;;;;;5071905;28;20724;-64
2021/11/24 03:06:32;;;;;;;16.70;14.05;;;10.70;99.90;;;;;;5072102;28;20228;-64
2021/11/24 03:08:58;;;;;;;9.45;8.45;;;10.70;99.90;;;;;;5071553;28;20228;-64
2021/11/24 03:11:25;;;;;;;19.42;13.68;;;10.70;99.90;;;;;;5072048;28;20755;-63
2021/11/24 03:13:54;;;;;;;18.05;14.45;;;10.70;99.90;;;;;;5072119;28;20586;-63
2021/11/24 03:16:21;;;;;;;13.45;11.40;;;10.70;99.90;;;;;;5059875;28;21036;-63
2021/11/24 03:18:48;;;;;;;18.23;13.88;;;10.70;99.90;;;;;;5072215;28;20592;-63
2021/11/24 03:21:15;;;;;;;11.73;8.32;;;10.70;99.90;;;;;;5071543;28;20243;-63
2021/11/24 03:23:42;;;;;;;14.23;10.10;;;10.70;99.90;;;;;;5071693;28;20324;-63
2021/11/24 03:26:09;;;;;;;17.30;14.25;;;10.70;99.90;;;;;;5071738;28;20708;-63
2021/11/24 03:28:36;;;;;;;13.15;9.77;;;10.70;99.90;;;;;;5071689;28;20232;-63
2021/11/24 03:31:04;;;;;;;24.23;18.23;;;10.70;99.90;;;;;;5071415;28;20246;-63
2021/11/24 03:33:31;;;;;;;16.92;13.65;;;10.70;99.90;;;;;;5074154;28;20605;-63
2021/11/24 03:35:58;;;;;;;15.43;10.48;;;10.70;99.90;;;;;;5074771;28;20220;-63
2021/11/24 03:38:25;;;;;;;15.73;12.43;;;10.70;99.90;;;;;;5074302;28;20535;-63
2021/11/24 03:40:52;;;;;;;12.32;11.05;;;10.60;99.90;;;;;;5075487;28;20232;-62
2021/11/24 03:43:19;;;;;;;14.57;11.77;;;10.70;99.90;;;;;;5074847;28;20236;-63
2021/11/24 03:45:46;;;;;;;17.88;14.55;;;10.70;99.90;;;;;;5074426;28;20231;-63
2021/11/24 03:48:14;;;;;;;16.98;10.88;;;10.70;99.90;;;;;;5074963;28;20255;-63
2021/11/24 03:50:41;;;;;;;17.73;13.02;;;10.70;99.90;;;;;;5075341;28;20231;-63
2021/11/24 03:53:08;;;;;;;11.80;10.07;;;10.70;99.90;;;;;;5074954;28;20246;-63
2021/11/24 03:55:35;;;;;;;17.65;15.00;;;10.60;99.90;;;;;;5075192;28;20232;-63
2021/11/24 03:58:02;;;;;;;20.75;14.27;;;10.70;99.90;;;;;;5074798;28;20289;-64
2021/11/24 04:00:31;;;;;;;17.30;12.38;;;10.70;99.90;;;;;;5075307;28;20322;-64
2021/11/24 04:02:58;;;;;;;14.35;11.02;;;10.70;99.90;;;;;;5075161;28;20228;-64
2021/11/24 04:05:27;;;;;;;13.35;9.15;;;10.70;99.90;;;;;;5070748;28;21019;-64
2021/11/24 04:07:54;;;;;;;20.02;14.73;;;10.70;99.90;;;;;;5075249;28;20228;-63
2021/11/24 04:10:22;;;;;;;20.58;14.07;;;10.70;99.90;;;;;;5074366;28;20654;-62
2021/11/24 04:12:49;;;;;;;13.93;9.70;;;10.70;99.90;;;;;;5075008;28;20227;-63
2021/11/24 04:15:18;;;;;;;13.05;9.70;;;10.70;99.90;;;;;;5074555;28;20220;-63
2021/11/24 04:17:45;;;;;;;8.93;7.70;;;10.70;99.90;;;;;;5074868;28;20277;-63
2021/11/24 04:20:15;;;;;;;9.90;7.53;;;10.70;99.90;;;;;;5074240;28;20224;-63
2021/11/24 04:22:43;;;;;;;8.60;7.15;;;10.70;99.90;;;;;;5074873;28;20232;-63
2021/11/24 04:25:12;;;;;;;13.88;12.43;;;10.70;99.90;;;;;;5074331;28;20228;-63
2021/11/24 04:27:39;;;;;;;11.70;10.13;;;10.70;99.90;;;;;;5074864;28;20223;-62
2021/11/24 04:30:08;;;;;;;16.40;12.57;;;10.70;99.90;;;;;;5074168;28;20337;-63
2021/11/24 04:32:35;;;;;;;15.35;12.80;;;10.70;99.90;;;;;;5073977;28;20232;-63
2021/11/24 04:35:02;;;;;;;15.35;9.30;;;10.70;99.90;;;;;;5073391;28;20227;-64
2021/11/24 04:37:30;;;;;;;19.77;14.93;;;10.70;99.90;;;;;;5074152;28;20223;-64
2021/11/24 04:39:59;;;;;;;12.63;10.18;;;10.70;99.90;;;;;;5074195;28;20220;-64
2021/11/24 04:42:26;;;;;;;14.70;11.77;;;10.70;99.90;;;;;;5073859;28;20227;-64
2021/11/24 04:44:53;;;;;;;22.10;13.23;;;10.70;99.90;;;;;;5073924;28;20220;-64
2021/11/24 04:47:20;;;;;;;13.40;10.88;;;10.60;99.90;;;;;;5073923;28;20269;-62
2021/11/24 04:49:47;;;;;;;20.33;15.02;;;10.60;99.90;;;;;;5074418;28;20224;-62
2021/11/24 04:52:14;;;;;;;16.08;11.13;;;10.60;99.90;;;;;;5073971;28;20244;-63
2021/11/24 04:54:41;;;;;;;13.38;10.00;;;10.70;99.90;;;;;;5064188;28;20290;-64
2021/11/24 04:57:10;;;;;;;10.32;8.38;;;10.60;99.90;;;;;;5053985;28;20228;-63
2021/11/24 04:59:38;;;;;;;16.25;11.38;;;10.60;99.90;;;;;;5054715;28;20224;-63
2021/11/24 05:02:05;;;;;;;12.60;9.70;;;10.70;99.90;;;;;;5054026;28;20659;-63
2021/11/24 05:04:32;;;;;;;10.32;9.23;;;10.70;99.90;;;;;;5054031;28;20232;-63
2021/11/24 05:06:58;;;;;;;16.75;11.77;;;10.70;99.90;;;;;;5054366;28;20275;-64
2021/11/24 05:09:25;;;;;;;13.73;9.98;;;10.70;99.90;;;;;;5053694;28;20247;-64
2021/11/24 05:11:52;;;;;;;10.32;9.13;;;10.70;99.90;;;;;;5054212;28;20225;-64
2021/11/24 05:14:24;;;;;;;13.43;11.02;;;10.60;99.90;;;;;;5053963;28;20225;-64
2021/11/24 05:16:51;;;;;;;12.23;9.63;;;10.70;99.90;;;;;;5054120;28;20247;-62
2021/11/24 05:19:21;;;;;;;10.57;9.35;;;10.60;99.90;;;;;;5053512;28;20229;-63
2021/11/24 05:21:51;;;;;;;8.88;7.97;;;10.60;99.90;;;;;;5053855;28;20235;-63
2021/11/24 05:24:19;;;;;;;9.52;7.63;;;10.60;99.90;;;;;;5053455;28;20282;-63
2021/11/24 05:26:47;;;;;;;15.15;11.25;;;10.60;99.90;;;;;;5053887;28;20224;-64
2021/11/24 05:29:14;;;;;;;12.52;10.60;;;10.60;99.90;;;;;;5053489;28;20602;-64
2021/11/24 05:31:43;;;;;;;10.23;8.25;;;10.60;99.90;;;;;;5055846;28;20679;-64
2021/11/24 05:34:10;;;;;;;11.35;8.50;;;10.60;99.90;;;;;;5073221;28;20228;-64
2021/11/24 05:36:39;;;;;;;16.08;11.07;;;10.60;99.90;;;;;;5073641;28;20228;-64
2021/11/24 05:39:08;;;;;;;13.70;10.30;;;10.60;99.90;;;;;;5073392;28;20220;-63
2021/11/24 05:41:38;;;;;;;10.30;8.50;;;10.60;99.90;;;;;;5073112;28;20953;-63
2021/11/24 05:44:17;;;;;;;14.82;10.80;;;10.60;99.90;;;;;;5073357;28;20227;-64
2021/11/24 05:46:48;;;;;;;11.50;9.48;;;10.70;99.90;;;;;;5073224;28;20285;-64
2021/11/24 05:49:16;;;;;;;15.13;10.13;;;10.60;99.90;;;;;;5073288;28;20277;-63
2021/11/24 05:51:43;;;;;;;12.68;9.43;;;10.60;99.90;;;;;;5072943;28;20238;-63
2021/11/24 05:54:10;;;;;;;12.50;9.10;;;10.70;99.90;;;;;;5073238;28;20562;-64
2021/11/24 05:56:38;;;;;;;13.75;9.23;;;10.60;99.90;;;;;;5071930;28;20318;-64
2021/11/24 05:59:06;;;;;;;9.90;7.72;;;10.70;99.90;;;;;;5072088;28;20215;-64
2021/11/24 06:01:34;;;;;;;14.20;10.82;;;10.70;99.90;;;;;;5071163;28;20262;-63
2021/11/24 06:04:02;;;;;;;12.38;10.98;;;10.60;99.90;;;;;;5071388;28;20231;-65
2021/11/24 06:06:29;;;;;;;16.70;12.43;;;10.60;99.90;;;;;;5070871;28;20228;-63
2021/11/24 06:08:56;;;;;;;13.02;9.63;;;10.60;99.90;;;;;;5071207;28;20228;-63
2021/11/24 06:11:23;;;;;;;12.82;10.05;;;10.60;99.90;;;;;;5070972;28;20235;-63
2021/11/24 06:13:50;;;;;;;13.32;9.90;;;10.60;99.90;;;;;;5072068;28;20277;-63
2021/11/24 06:16:17;;;;;;;11.68;10.20;;;10.70;99.90;;;;;;5073111;28;20228;-63
2021/11/24 06:18:44;;;;;;;11.82;9.60;;;10.70;99.90;;;;;;5072674;28;20232;-63
2021/11/24 06:21:12;;;;;;;15.77;11.25;;;10.70;99.90;;;;;;5073011;28;20670;-63
2021/11/24 06:23:41;;;;;;;9.65;8.35;;;10.70;99.90;;;;;;5072382;28;20235;-63
2021/11/24 06:26:09;;;;;;;8.60;7.70;;;10.70;99.90;;;;;;5073007;28;20289;-63
2021/11/24 06:28:37;;;;;;;9.43;7.65;;;10.70;99.90;;;;;;5072540;28;20564;-63
2021/11/24 06:31:04;;;;;;;10.00;7.95;;;10.70;99.90;;;;;;5072726;28;20232;-63
2021/11/24 06:33:31;;;;;;;9.43;7.65;;;10.60;99.90;;;;;;5071924;28;20224;-63
2021/11/24 06:35:58;;;;;;;8.73;7.85;;;10.60;99.90;;;;;;5072720;28;20227;-63
2021/11/24 06:38:27;;;;;;;10.27;8.55;;;10.60;99.90;;;;;;5072389;28;20228;-63
2021/11/24 06:40:54;;;;;;;9.38;8.15;;;10.60;99.90;;;;;;5072543;28;20228;-63
2021/11/24 06:43:21;;;;;;;8.40;7.50;;;10.60;99.90;;;;;;5072758;28;20239;-64
2021/11/24 06:45:48;;;;;;;10.00;7.30;;;10.60;99.90;;;;;;5072369;28;20945;-63
2021/11/24 06:48:14;;;;;;;16.13;11.38;;;10.60;99.90;;;;;;5072634;28;20570;-63
2021/11/24 06:50:42;;;;;;;11.02;8.95;;;10.70;99.90;;;;;;5072258;28;20285;-63
2021/11/24 06:53:09;;;;;;;10.30;9.10;;;10.70;99.90;;;;;;5072756;28;20596;-63
2021/11/24 06:55:37;;;;;;;8.40;7.60;;;10.70;99.90;;;;;;5072028;28;20220;-64
2021/11/24 06:58:04;;;;;;;9.60;7.90;;;10.70;99.90;;;;;;5072672;28;20685;-63
2021/11/24 07:00:32;;;;;;;9.63;8.63;;;10.70;99.90;;;;;;5072122;28;20228;-63
2021/11/24 07:02:58;;;;;;;13.82;10.23;;;10.70;99.90;;;;;;5072337;28;20220;-62
2021/11/24 07:05:25;;;;;;;13.32;10.10;;;10.70;99.90;;;;;;5072138;28;20227;-65
2021/11/24 07:07:52;;;;;;;12.43;9.57;;;10.70;99.90;;;;;;5075729;28;20227;-64
2021/11/24 07:10:19;;;;;;;10.13;8.88;;;10.70;99.90;;;;;;5075988;28;20227;-64
2021/11/24 07:12:48;;;;;;;11.73;9.63;;;10.80;99.90;;;;;;5075962;28;20231;-63
2021/11/24 07:15:15;;;;;;;12.48;10.25;;;10.70;99.90;;;;;;5076142;28;20220;-65
2021/11/24 07:17:42;;;;;;;16.33;11.00;;;10.70;99.90;;;;;;5076065;28;20224;-63
2021/11/24 07:20:10;;;;;;;13.40;11.32;;;10.70;99.90;;;;;;5076102;28;20220;-63
2021/11/24 07:22:37;;;;;;;14.30;10.90;;;10.80;99.90;;;;;;5075760;28;20678;-63
2021/11/24 07:25:05;;;;;;;13.02;10.55;;;10.80;99.90;;;;;;5076275;28;20231;-63
2021/11/24 07:27:32;;;;;;;16.23;11.70;;;10.80;99.90;;;;;;5075649;28;20227;-64
2021/11/24 07:30:00;;;;;;;13.02;11.25;;;10.80;99.90;;;;;;5076086;28;20228;-62
2021/11/24 07:32:27;;;;;;;13.50;10.98;;;10.80;99.90;;;;;;5075420;28;20228;-62
2021/11/24 07:34:54;;;;;;;12.48;11.10;;;10.80;99.90;;;;;;5075843;28;20220;-63
2021/11/24 07:37:21;;;;;;;14.85;11.63;;;10.80;99.90;;;;;;5075851;28;20690;-63
2021/11/24 07:39:48;;;;;;;11.75;9.82;;;10.80;99.90;;;;;;5075466;28;20236;-64
2021/11/24 07:42:15;;;;;;;12.13;10.75;;;10.80;99.90;;;;;;5075746;28;20228;-63
2021/11/24 07:44:42;;;;;;;13.05;10.93;;;10.80;99.90;;;;;;5075469;28;20236;-63
2021/11/24 07:47:11;;;;;;;14.77;11.18;;;10.80;99.90;;;;;;5075918;28;20262;-62
2021/11/24 07:49:39;;;;;;;13.27;10.35;;;10.70;99.90;;;;;;5075270;28;20267;-63
2021/11/24 07:52:06;;;;;;;11.40;9.55;;;10.70;99.90;;;;;;5075639;28;20223;-63
2021/11/24 07:54:33;;;;;;;13.60;9.48;;;10.70;99.90;;;;;;5075108;28;20271;-62
2021/11/24 07:57:00;;;;;;;18.05;13.27;;;10.80;99.90;;;;;;5075617;28;20223;-63
2021/11/24 07:59:27;;;;;;;18.30;13.65;;;10.80;99.90;;;;;;5075698;28;20232;-63
2021/11/24 08:01:54;;;;;;;15.43;11.45;;;10.80;99.90;;;;;;5075372;28;21356;-63
2021/11/24 08:04:22;;;;;;;14.68;11.18;;;10.80;99.90;;;;;;5075240;28;20235;-63
2021/11/24 08:06:49;;;;;;;13.60;10.32;;;10.80;99.90;;;;;;5074882;28;20705;-64
2021/11/24 08:09:16;;;;;;;15.05;11.85;;;10.80;99.90;;;;;;5075442;28;20220;-63
2021/11/24 08:11:43;;;;;;;12.15;10.05;;;10.80;99.90;;;;;;5073695;28;20708;-64
2021/11/24 08:14:10;;;;;;;13.38;11.40;;;10.90;99.90;;;;;;5074334;28;20273;-64
2021/11/24 08:16:37;;;;;;;12.50;10.93;;;10.90;99.90;;;;;;5074521;28;20612;-64
2021/11/24 08:19:04;;;;;;;14.70;11.02;;;10.90;99.90;;;;;;5073775;28;20223;-63
2021/11/24 08:21:32;;;;;;;11.50;9.90;;;10.80;99.90;;;;;;5074806;28;20565;-65
2021/11/24 08:23:59;;;;;;;12.80;10.80;;;10.90;99.90;;;;;;5075123;28;20239;-64
2021/11/24 08:26:26;;;;;;;14.57;10.27;;;10.90;99.90;;;;;;5074850;28;20231;-64
2021/11/24 08:28:53;;;;;;;12.35;9.52;;;10.80;99.90;;;;;;5074617;28;20273;-64
2021/11/24 08:31:20;;;;;;;13.25;11.15;;;10.90;99.90;;;;;;5074887;28;20246;-64
2021/11/24 08:33:47;;;;;;;16.65;12.60;;;10.90;99.90;;;;;;5074273;28;20274;-64
2021/11/24 08:36:15;;;;;;;12.18;10.60;;;10.90;99.90;;;;;;5074809;28;20223;-64
2021/11/24 08:38:44;;;;;;;13.52;10.55;;;10.90;99.90;;;;;;5074430;28;20216;-64
2021/11/24 08:41:12;;;;;;;10.95;9.43;;;10.90;99.90;;;;;;5074562;28;20224;-64
2021/11/24 08:43:39;;;;;;;13.00;10.95;;;10.90;99.90;;;;;;5074354;28;20597;-64
2021/11/24 08:46:06;;;;;;;14.00;9.95;;;11.00;99.90;;;;;;5074737;28;20303;-64
2021/11/24 08:48:33;;;;;;;12.52;10.25;;;10.90;99.90;;;;;;5074175;28;20232;-64
2021/11/24 08:51:01;;;;;;;15.43;11.02;;;10.90;99.90;;;;;;5074641;28;20242;-64
2021/11/24 08:53:28;;;;;;;15.10;10.60;;;10.90;99.90;;;;;;5074384;28;20571;-64
2021/11/24 08:55:56;;;;;;;14.40;11.55;;;10.90;99.90;;;;;;5074276;28;20224;-64
2021/11/24 08:58:23;;;;;;;12.65;10.75;;;10.90;99.90;;;;;;5074435;28;20243;-64
2021/11/24 09:00:51;;;;;;;11.70;9.48;;;10.90;99.90;;;;;;5073829;28;20288;-64
2021/11/24 09:03:19;;;;;;;10.73;8.57;;;11.00;99.90;;;;;;5074365;28;20270;-64
2021/11/24 09:05:46;;;;;;;13.23;9.50;;;10.90;99.90;;;;;;5073763;28;20645;-64
2021/11/24 09:08:13;;;;;;;12.88;10.13;;;10.90;99.90;;;;;;5073990;28;20219;-64
2021/11/24 09:10:42;;;;;;;14.43;10.70;;;10.90;99.90;;;;;;5073704;28;20625;-64
2021/11/24 09:13:10;;;;;;;12.05;10.10;;;10.90;99.90;;;;;;5074117;28;20224;-64
2021/11/24 09:15:37;;;;;;;13.68;10.95;;;10.90;99.90;;;;;;5073624;28;20235;-65
2021/11/24 09:18:05;;;;;;;13.02;10.00;;;10.80;99.90;;;;;;5074269;28;20227;-64
2021/11/24 09:20:33;;;;;;;11.50;9.50;;;10.80;99.90;;;;;;5073706;28;20228;-64
2021/11/24 09:23:00;;;;;;;14.15;11.90;;;10.80;99.90;;;;;;5073571;28;20215;-64
2021/11/24 09:25:36;;;;;;;14.43;10.35;;;10.80;99.90;;;;;;5073773;28;20815;-64
2021/11/24 09:28:09;;;;;;;15.50;11.35;;;10.80;99.90;;;;;;5073420;28;20219;-65
2021/11/24 09:30:37;;;;;;;13.23;9.50;;;10.80;99.90;;;;;;5073416;28;20285;-63
2021/11/24 09:33:04;;;;;;;12.88;10.40;;;10.80;99.90;;;;;;5072995;28;20285;-63
2021/11/24 09:35:32;;;;;;;14.10;10.45;;;10.80;99.90;;;;;;5073647;28;20232;-62
2021/11/24 09:38:00;;;;;;;13.93;10.15;;;10.90;99.90;;;;;;5073050;28;20246;-63
2021/11/24 09:40:27;;;;;;;12.90;9.80;;;10.90;99.90;;;;;;5073398;28;20606;-63
2021/11/24 09:43:00;;;;;;;13.25;10.38;;;10.90;99.90;;;;;;5073315;28;20560;-63
2021/11/24 09:45:28;;;;;;;13.07;10.20;;;10.90;99.90;;;;;;5073370;28;20239;-64
2021/11/24 09:47:59;;;;;;;14.38;11.00;;;10.90;99.90;;;;;;5072856;28;20708;-64
2021/11/24 09:50:28;;;;;;;12.95;11.38;;;11.00;99.90;;;;;;5073319;28;20255;-64
2021/11/24 09:52:56;;;;;;;16.08;11.55;;;10.90;99.90;;;;;;5073048;28;20321;-64
2021/11/24 09:55:24;;;;;;;12.50;10.48;;;10.90;99.90;;;;;;5073457;28;20314;-64
2021/11/24 09:57:53;;;;;;;12.63;9.95;;;11.00;99.90;;;;;;5073032;28;20234;-64
2021/11/24 10:00:20;;;;;;;13.15;10.73;;;11.10;99.90;;;;;;5073149;28;20243;-65
2021/11/24 10:02:48;;;;;;;12.63;10.38;;;11.10;99.90;;;;;;5071721;28;20233;-63
2021/11/24 10:05:18;;;;;;;10.98;9.75;;;11.10;99.90;;;;;;5072915;28;20235;-63
2021/11/24 10:07:45;;;;;;;10.93;9.05;;;11.10;99.90;;;;;;5053410;28;20304;-63
2021/11/24 10:10:12;;;;;;;12.88;9.68;;;11.10;99.90;;;;;;5053088;28;20232;-64
2021/11/24 10:12:39;;;;;;;9.50;8.50;;;11.10;99.90;;;;;;5053384;28;20536;-63
2021/11/24 10:15:10;;;;;;;12.20;10.07;;;11.10;99.90;;;;;;5052554;28;20286;-63
2021/11/24 10:17:37;;;;;;;10.57;9.40;;;11.10;99.90;;;;;;5053076;28;20225;-63
2021/11/24 10:20:07;;;;;;;14.02;9.75;;;11.10;99.90;;;;;;5052602;28;20297;-64
2021/11/24 10:22:36;;;;;;;10.25;9.30;;;11.10;99.90;;;;;;5052796;28;20315;-64
2021/11/24 10:25:07;;;;;;;11.43;9.30;;;11.20;99.90;;;;;;5052346;28;20232;-63
2021/11/24 10:27:38;;;;;;;10.80;8.40;;;11.20;99.90;;;;;;5052735;28;20239;-64
2021/11/24 10:30:08;;;;;;;10.60;8.70;;;11.20;99.90;;;;;;5052480;28;20228;-64
2021/11/24 10:32:35;;;;;;;17.45;11.73;;;11.20;99.90;;;;;;5052721;28;20259;-64
2021/11/24 10:35:04;;;;;;;13.38;10.70;;;11.20;99.90;;;;;;5052287;28;20229;-64
2021/11/24 10:37:32;;;;;;;14.80;11.15;;;11.20;99.90;;;;;;5052856;28;20224;-64
2021/11/24 10:40:03;;;;;;;11.48;9.70;;;11.30;99.90;;;;;;5052233;28;20224;-64
2021/11/24 10:42:33;;;;;;;14.85;12.90;;;11.20;99.90;;;;;;5052276;28;20221;-64
2021/11/24 10:45:02;;;;;;;12.52;10.02;;;11.20;99.90;;;;;;5052396;28;20663;-64
2021/11/24 10:47:29;;;;;;;12.73;10.10;;;11.30;99.90;;;;;;5052680;28;20690;-64
2021/11/24 10:49:57;;;;;;;12.73;10.20;;;11.20;99.90;;;;;;5052101;28;20259;-64
2021/11/24 10:52:27;;;;;;;15.32;9.90;;;11.20;99.90;;;;;;5052588;28;20306;-64
2021/11/24 10:55:08;;;;;;;12.38;9.63;;;11.30;99.90;;;;;;5051960;28;20235;-64
2021/11/24 10:57:36;;;;;;;13.38;10.20;;;11.20;99.90;;;;;;5052400;28;20228;-64
2021/11/24 11:00:09;;;;;;;13.05;10.25;;;11.20;99.90;;;;;;5051856;28;20613;-64
2021/11/24 11:02:38;;;;;;;12.52;9.27;;;11.20;99.90;;;;;;5052587;28;20231;-64
2021/11/24 11:05:11;;;;;;;11.00;9.10;;;11.20;99.90;;;;;;5051773;28;20236;-64
2021/11/24 11:07:41;;;;;;;12.35;8.85;;;11.20;99.90;;;;;;5052474;28;20848;-63
2021/11/24 11:10:14;;;;;;;11.63;10.15;;;11.20;99.90;;;;;;5052058;28;20568;-63
2021/11/24 11:12:43;;;;;;;16.33;11.27;;;11.20;99.90;;;;;;5052558;28;20267;-64
2021/11/24 11:15:18;;;;;;;12.40;9.18;;;11.10;99.90;;;;;;5052001;28;20236;-63
2021/11/24 11:17:59;;;;;;;13.35;9.88;;;11.20;99.90;;;;;;5052346;28;20232;-64
2021/11/24 11:20:28;;;;;;;10.60;8.38;;;11.20;99.90;;;;;;5052640;28;20224;-64
2021/11/24 11:23:04;;;;;;;11.85;9.10;;;11.20;99.90;;;;;;5052352;28;20660;-63
2021/11/24 11:25:32;;;;;;;12.48;8.85;;;11.20;99.90;;;;;;5052037;28;20224;-63
2021/11/24 11:28:01;;;;;;;11.10;9.20;;;11.20;99.90;;;;;;5051898;28;21009;-63
2021/11/24 11:30:28;;;;;;;10.35;9.07;;;11.20;99.90;;;;;;5052438;28;20307;-63
2021/11/24 11:32:56;;;;;;;12.18;10.35;;;11.20;99.90;;;;;;5051577;28;20245;-63
2021/11/24 11:35:24;;;;;;;12.95;11.40;;;11.30;99.90;;;;;;5052152;28;20308;-63
2021/11/24 11:37:52;;;;;;;12.20;10.07;;;11.20;99.90;;;;;;5051742;28;20225;-64
2021/11/24 11:40:19;;;;;;;11.65;9.70;;;11.20;99.90;;;;;;5052142;28;20224;-63
2021/11/24 11:42:51;;;;;;;11.35;9.38;;;11.20;99.90;;;;;;5051652;28;20247;-64
2021/11/24 11:45:20;;;;;;;8.93;7.50;;;11.30;99.90;;;;;;5052116;28;20610;-63
2021/11/24 11:47:50;;;;;;;9.43;7.65;;;11.30;99.90;;;;;;5051489;28;20224;-63
2021/11/24 11:50:51;;;;;;;9.05;7.30;;;11.30;99.90;;;;;;5051765;28;20228;-64
2021/11/24 11:53:22;;;;;;;11.00;7.97;;;11.30;99.90;;;;;;5052544;28;20223;-63
2021/11/24 11:56:09;;;;;;;8.48;7.07;;;11.30;99.90;;;;;;5055473;28;20225;-64
2021/11/24 11:58:51;;;;;;;14.73;12.05;;;11.30;99.90;;;;;;5055205;28;20686;-63
2021/11/24 12:01:23;;;;;;;11.15;7.95;;;11.30;99.90;;;;;;5055203;28;20227;-64
2021/11/24 12:04:02;;;;;;;14.35;10.40;;;11.30;99.90;;;;;;5065422;28;20553;-64
2021/11/24 12:06:31;;;;;;;11.40;8.48;;;11.20;99.90;;;;;;5075060;28;20316;-65
2021/11/24 12:09:17;;;;;;;7.68;6.80;;;11.30;99.90;;;;;;5075242;28;20224;-65
2021/11/24 12:12:06;;;;;;;6.90;6.20;;;11.30;99.90;;;;;;5075039;28;20265;-65
2021/11/24 12:15:02;;;;;;;9.40;6.15;;;11.30;99.90;;;;;;5074936;28;20224;-63
2021/11/24 12:17:55;;;;;;;11.10;9.73;;;11.30;99.90;;;;;;5074911;28;20220;-64
2021/11/24 12:20:40;;;;;;;10.10;7.28;;;11.30;99.90;;;;;;5074562;28;20311;-63
2021/11/24 12:23:14;;;;;;;7.50;6.78;;;11.30;99.90;;;;;;5074646;28;20533;-64
2021/11/24 12:25:44;;;;;;;6.65;6.05;;;11.30;99.90;;;;;;5074636;28;20231;-64
2021/11/24 12:28:13;;;;;;;7.03;6.20;;;11.30;99.90;;;;;;5075015;28;20307;-64
2021/11/24 12:31:07;;;;;;;7.30;6.00;;;11.30;99.90;;;;;;5074576;28;20272;-64
2021/11/24 12:33:40;;;;;;;13.45;10.32;;;11.40;99.90;;;;;;5074327;28;20231;-64
2021/11/24 12:36:11;;;;;;;8.70;7.50;;;11.40;99.90;;;;;;5074925;28;20700;-64
2021/11/24 12:38:42;;;;;;;8.48;6.90;;;11.40;99.90;;;;;;5074436;28;20247;-64